Terminal Aerodrome Forecast
Issued by NWS

Home | Current Version | Previous Version | Text Only | Print | Product List | Glossary On
Versions: 1 2 3 4 5 6 7 8 9 10 11 12 13 14 15
000
FTUS43 KPAH 121328 AAA
TAFOWB
TAF AMD
KOWB 121328Z 1213/1312 33015G25KT P6SM OVC025
     FM121400 33015G24KT P6SM BKN040
     FM121600 32015G23KT P6SM SCT150
     FM122300 31008KT P6SM FEW250
     FM130300 28004KT P6SM FEW250
     FM131000 22004KT P6SM FEW250=

USA.gov is the U.S. government's official web portal to all federal, state and local government web resources and services.